Time;durP1;ratioP1;P1;durP2;ratioP2;P2;SDS_P1;SDS_P2;PMS_P1;PMS_P2;Temp;Humidity;BMP_temperature;BMP_pressure;BME280_temperature;BME280_humidity;BME280_pressure;Samples;Min_cycle;Max_cycle;Signal;HPM_P1;HPM_P2
2022/11/12 00:01:00;;;;;;;1.67;1.00;;;;;;;7.04;100.00;99984.81;15271892;19;20010;-55
2022/11/12 00:06:46;;;;;;;1.67;0.90;;;;;;;6.98;100.00;99985.22;15279644;19;20074;-56
2022/11/12 00:12:29;;;;;;;1.65;0.93;;;;;;;6.94;100.00;99981.00;14767146;19;10001948;-55
2022/11/12 00:18:12;;;;;;;2.45;1.00;;;;;;;6.90;100.00;99985.72;15278058;19;20074;-54
2022/11/12 00:23:58;;;;;;;1.90;0.80;;;;;;;6.86;100.00;99986.00;15275025;19;20014;-53
2022/11/12 00:29:42;;;;;;;1.13;1.00;;;;;;;6.82;100.00;99979.13;15273017;19;20014;-54
2022/11/12 00:35:25;;;;;;;2.17;1.08;;;;;;;6.80;100.00;99984.59;15278986;19;20010;-53
2022/11/12 00:41:11;;;;;;;1.58;1.00;;;;;;;6.78;100.00;99978.47;15275143;19;20016;-53
2022/11/12 00:46:54;;;;;;;1.67;1.00;;;;;;;6.74;100.00;99977.81;15279556;19;20014;-56
2022/11/12 00:52:37;;;;;;;2.65;1.20;;;;;;;6.72;100.00;99974.34;15281222;19;20014;-54
2022/11/12 00:58:22;;;;;;;2.85;1.20;;;;;;;6.70;100.00;99968.22;15276664;19;20014;-54
2022/11/12 01:04:07;;;;;;;1.92;1.00;;;;;;;6.67;100.00;99975.63;15271880;19;20026;-53
2022/11/12 01:09:50;;;;;;;2.45;1.00;;;;;;;6.67;100.00;99976.47;15275046;19;20030;-56
2022/11/12 01:15:35;;;;;;;2.42;1.10;;;;;;;6.64;100.00;99971.31;15277502;19;20239;-57
2022/11/12 01:21:24;;;;;;;1.75;1.08;;;;;;;6.65;100.00;99964.13;15278542;19;20372;-57
2022/11/12 01:27:07;;;;;;;1.38;0.80;;;;;;;6.63;100.00;99961.56;15276338;19;20011;-56
2022/11/12 01:32:52;;;;;;;1.30;0.98;;;;;;;6.60;100.00;99959.91;15270172;19;20364;-56
2022/11/12 01:38:36;;;;;;;2.22;1.10;;;;;;;6.56;100.00;99953.06;15274714;19;20081;-54
2022/11/12 01:44:25;;;;;;;2.28;1.20;;;;;;;6.53;100.00;99955.03;15273460;19;20014;-54
2022/11/12 01:50:23;;;;;;;2.60;1.23;;;;;;;6.46;100.00;99955.44;15016022;19;5001284;-56
2022/11/12 01:56:08;;;;;;;2.35;1.10;;;;;;;6.43;100.00;99957.47;15275054;19;20784;-56
2022/11/12 02:01:51;;;;;;;1.30;1.00;;;;;;;6.41;100.00;99954.88;15275385;19;20077;-53
2022/11/12 02:07:39;;;;;;;3.03;1.13;;;;;;;6.41;100.00;99949.50;15269370;19;20014;-53
2022/11/12 02:19:20;;;;;;;3.20;1.30;;;;;;;6.40;100.00;99963.88;15271350;19;20019;-55
2022/11/12 02:25:06;;;;;;;3.17;1.23;;;;;;;6.39;100.00;99967.50;15270607;19;20040;-56
2022/11/12 02:30:51;;;;;;;1.75;1.20;;;;;;;6.41;100.00;99973.59;15271591;19;20026;-58
2022/11/12 02:36:34;;;;;;;2.50;1.20;;;;;;;6.42;100.00;99972.66;15268593;19;20469;-56
2022/11/12 02:42:20;;;;;;;2.95;1.30;;;;;;;6.38;100.00;99976.50;15273686;19;20101;-56
2022/11/12 02:48:03;;;;;;;2.13;1.20;;;;;;;6.36;100.00;99970.38;15270406;19;20015;-55
2022/11/12 02:53:54;;;;;;;3.77;1.40;;;;;;;6.35;100.00;99979.34;15273094;19;20010;-58
2022/11/12 02:59:39;;;;;;;1.63;1.20;;;;;;;6.35;100.00;99971.31;15270995;19;20078;-58
2022/11/12 03:05:23;;;;;;;2.75;1.60;;;;;;;6.31;100.00;99965.31;15271971;19;20669;-57
2022/11/12 03:11:11;;;;;;;3.42;1.40;;;;;;;6.23;100.00;99961.38;15264034;19;20011;-57
2022/11/12 03:16:57;;;;;;;2.80;1.58;;;;;;;6.10;100.00;99955.94;15272005;19;20531;-57
2022/11/12 03:22:41;;;;;;;2.20;1.48;;;;;;;6.04;100.00;99958.97;15270737;19;20023;-56
2022/11/12 03:28:25;;;;;;;2.67;1.50;;;;;;;5.93;100.00;99960.47;15267933;19;20010;-58
2022/11/12 03:34:19;;;;;;;2.53;1.40;;;;;;;5.81;100.00;99956.75;15267344;19;20014;-58
2022/11/12 03:40:02;;;;;;;3.13;1.55;;;;;;;5.69;100.00;99955.66;15283586;19;20364;-55
2022/11/12 03:45:45;;;;;;;3.97;1.90;;;;;;;5.58;100.00;99960.78;15283944;19;20022;-58
2022/11/12 03:51:30;;;;;;;4.50;1.90;;;;;;;5.53;100.00;99961.06;15284654;19;20094;-57
2022/11/12 03:57:14;;;;;;;2.92;1.85;;;;;;;5.37;100.00;99966.47;15281216;19;20018;-56
2022/11/12 04:02:57;;;;;;;2.70;1.80;;;;;;;5.28;100.00;99971.47;15283598;19;20018;-56
2022/11/12 04:08:44;;;;;;;2.25;1.73;;;;;;;5.16;100.00;99963.22;15280357;19;20039;-55
2022/11/12 04:14:27;;;;;;;2.63;1.60;;;;;;;4.97;100.00;99965.22;15275480;19;20085;-56
2022/11/12 04:32:10;;;;;;;2.72;1.70;;;;;;;4.51;100.00;99969.53;15280328;19;20652;-52
2022/11/12 04:37:54;;;;;;;2.97;1.95;;;;;;;4.43;100.00;99982.41;15279133;19;20442;-55
2022/11/12 04:49:37;;;;;;;3.80;2.03;;;;;;;4.18;100.00;99985.53;15272834;19;20602;-56
2022/11/12 04:55:20;;;;;;;2.35;1.92;;;;;;;3.98;100.00;99992.81;15277920;19;20431;-56
2022/11/12 05:01:05;;;;;;;6.88;2.30;;;;;;;3.86;100.00;99988.97;15275321;19;20006;-54
2022/11/12 05:06:55;;;;;;;3.45;2.50;;;;;;;3.84;100.00;100002.38;15277971;19;20014;-56
2022/11/12 05:12:38;;;;;;;3.90;2.38;;;;;;;3.81;100.00;99996.34;15277572;19;20022;-56
2022/11/12 05:18:25;;;;;;;4.50;2.33;;;;;;;3.79;100.00;100003.56;15272058;19;20010;-57
2022/11/12 05:24:09;;;;;;;4.07;1.90;;;;;;;3.77;100.00;99990.28;15276819;19;20030;-54
2022/11/12 05:30:13;;;;;;;3.08;1.98;;;;;;;3.71;100.00;99993.28;15274644;19;20010;-56
2022/11/12 05:36:00;;;;;;;3.55;1.90;;;;;;;3.66;100.00;99997.97;15275300;19;20010;-56
2022/11/12 05:41:43;;;;;;;3.13;2.17;;;;;;;3.59;100.00;99992.09;15275645;19;20010;-57
2022/11/12 05:47:49;;;;;;;3.05;2.00;;;;;;;3.57;100.00;99988.66;15274651;19;20014;-54
2022/11/12 05:53:35;;;;;;;2.80;2.20;;;;;;;3.54;100.00;99997.66;15271045;19;20102;-55
2022/11/12 05:59:18;;;;;;;3.38;2.22;;;;;;;3.54;100.00;100004.81;15271337;19;20014;-53
2022/11/12 06:05:01;;;;;;;2.75;2.20;;;;;;;3.54;100.00;100011.00;15270329;19;20023;-54
2022/11/12 06:10:50;;;;;;;3.85;2.70;;;;;;;3.63;100.00;100025.66;15268597;19;20052;-53
2022/11/12 06:16:33;;;;;;;3.72;2.75;;;;;;;3.67;100.00;100021.91;15270853;19;20099;-55
2022/11/12 06:22:17;;;;;;;3.47;2.50;;;;;;;3.76;100.00;100036.59;15266195;19;20403;-56
2022/11/12 06:28:03;;;;;;;3.72;2.70;;;;;;;3.76;100.00;100030.38;15270390;19;20082;-56
2022/11/12 06:33:46;;;;;;;3.80;2.50;;;;;;;3.74;100.00;100029.59;15266744;19;20010;-51
2022/11/12 06:39:30;;;;;;;6.43;2.47;;;;;;;3.78;100.00;100032.00;15266565;19;20014;-57
2022/11/12 06:45:15;;;;;;;4.55;2.58;;;;;;;3.80;100.00;100030.13;15261728;19;20523;-55
2022/11/12 06:50:59;;;;;;;4.10;2.40;;;;;;;3.80;100.00;100032.78;15264261;19;20022;-55
2022/11/12 06:56:42;;;;;;;3.20;2.00;;;;;;;3.84;100.00;100025.50;15258120;19;20590;-54
2022/11/12 07:02:27;;;;;;;2.60;2.10;;;;;;;3.85;100.00;100025.44;15262773;19;20007;-55
2022/11/12 07:08:04;;;;;;;4.03;2.38;;;;;;;3.91;100.00;100034.03;15263252;19;20453;-57
2022/11/12 07:13:48;;;;;;;4.03;2.63;;;;;;;3.98;100.00;100031.00;15284552;19;20010;-56
2022/11/12 07:19:34;;;;;;;2.92;2.10;;;;;;;4.15;100.00;100045.25;15279548;19;20011;-59
2022/11/12 07:25:17;;;;;;;3.00;2.10;;;;;;;4.34;100.00;100034.50;15280529;19;20026;-59
2022/11/12 07:31:04;;;;;;;4.95;1.92;;;;;;;4.43;100.00;100030.44;15272650;19;20014;-57
2022/11/12 07:36:52;;;;;;;3.28;2.08;;;;;;;4.50;100.00;100025.63;15280387;19;20020;-57
2022/11/12 07:42:35;;;;;;;3.40;2.38;;;;;;;4.58;100.00;100024.28;15281329;19;20018;-55
2022/11/12 07:48:20;;;;;;;3.22;2.25;;;;;;;4.66;100.00;100031.88;15279632;19;20468;-55
2022/11/12 07:54:07;;;;;;;3.30;2.38;;;;;;;4.69;100.00;100020.16;15282894;19;20443;-52
2022/11/12 07:59:50;;;;;;;3.35;2.40;;;;;;;4.80;100.00;100023.09;15271690;19;20011;-57
2022/11/12 08:05:33;;;;;;;3.35;2.38;;;;;;;4.90;100.00;100032.31;15273520;19;20479;-54
2022/11/12 08:11:18;;;;;;;2.42;2.10;;;;;;;5.06;100.00;100044.84;15279291;19;20432;-57
2022/11/12 08:17:02;;;;;;;3.20;2.10;;;;;;;5.22;100.00;100047.50;15278406;19;20010;-53
2022/11/12 08:22:45;;;;;;;2.60;1.98;;;;;;;5.41;100.00;100052.66;15278235;19;20018;-54
2022/11/12 08:28:31;;;;;;;2.65;1.80;;;;;;;5.59;100.00;100045.41;15274114;19;20019;-57
2022/11/12 08:34:20;;;;;;;3.28;1.98;;;;;;;5.77;100.00;100045.25;15268740;19;20018;-54
2022/11/12 08:40:03;;;;;;;4.10;1.98;;;;;;;5.94;100.00;100042.44;15278117;19;20007;-54
2022/11/12 08:45:49;;;;;;;3.22;2.13;;;;;;;6.13;100.00;100031.53;15273694;19;20563;-55
2022/11/12 08:51:32;;;;;;;5.30;1.90;;;;;;;6.30;100.00;100024.28;15279218;19;20019;-54
2022/11/12 08:57:15;;;;;;;2.85;2.00;;;;;;;6.49;100.00;100018.66;15276402;19;20618;-56
2022/11/12 09:03:04;;;;;;;2.97;1.98;;;;;;;6.68;100.00;100021.03;15278426;19;20018;-54
2022/11/12 09:08:47;;;;;;;2.20;1.88;;;;;;;6.87;100.00;100020.72;15275781;19;20443;-55
2022/11/12 09:14:30;;;;;;;2.50;1.80;;;;;;;7.08;100.00;100022.97;15277198;19;20379;-53
2022/11/12 09:20:17;;;;;;;2.58;1.90;;;;;;;7.25;100.00;100016.53;15273644;19;20037;-56
2022/11/12 09:26:00;;;;;;;2.33;1.85;;;;;;;7.52;100.00;100015.66;15273422;19;20467;-54
2022/11/12 09:31:43;;;;;;;4.30;1.85;;;;;;;7.74;100.00;100008.84;15275038;19;20252;-53
2022/11/12 09:37:29;;;;;;;2.55;1.50;;;;;;;8.01;100.00;100012.34;15273750;19;20598;-54
2022/11/12 09:43:25;;;;;;;3.75;1.42;;;;;;;8.26;100.00;100005.28;15274986;19;20018;-58
2022/11/12 09:49:14;;;;;;;2.47;1.40;;;;;;;8.48;100.00;99996.56;15274423;19;20022;-54
2022/11/12 09:55:08;;;;;;;2.10;1.30;;;;;;;8.72;100.00;99978.81;15276342;19;20023;-53
2022/11/12 10:00:58;;;;;;;1.80;1.25;;;;;;;8.98;100.00;99984.13;15272892;19;20618;-52
2022/11/12 10:06:48;;;;;;;1.63;1.00;;;;;;;9.24;100.00;99985.72;15266257;19;20444;-53
2022/11/12 10:12:45;;;;;;;2.25;1.20;;;;;;;9.48;100.00;99978.66;15261544;19;20014;-54
2022/11/12 10:18:47;;;;;;;1.75;1.10;;;;;;;9.69;100.00;99976.16;15261790;19;20010;-54
2022/11/12 10:24:36;;;;;;;1.75;1.00;;;;;;;9.89;100.00;99984.53;15268321;19;20038;-54
2022/11/12 10:30:30;;;;;;;1.80;1.10;;;;;;;10.02;100.00;99963.75;15268386;19;20403;-56
2022/11/12 10:36:36;;;;;;;3.75;1.55;;;;;;;10.18;100.00;99971.50;15270987;19;20371;-49
2022/11/12 10:42:21;;;;;;;2.58;1.40;;;;;;;10.34;100.00;99968.44;15266728;19;20014;-53
2022/11/12 10:48:07;;;;;;;1.60;1.10;;;;;;;10.53;100.00;99962.47;15268402;19;20585;-57
2022/11/12 10:53:50;;;;;;;1.25;1.15;;;;;;;10.73;100.00;99947.41;15269190;19;20078;-52
2022/11/12 10:59:34;;;;;;;1.88;1.00;;;;;;;11.01;100.00;99949.66;15265429;19;20022;-55
2022/11/12 11:05:36;;;;;;;1.73;1.30;;;;;;;11.29;100.00;99934.75;15265574;19;20014;-50
2022/11/12 11:11:32;;;;;;;2.60;1.10;;;;;;;11.51;100.00;99930.22;15271456;19;20010;-58
2022/11/12 11:17:19;;;;;;;1.98;1.00;;;;;;;11.82;100.00;99931.16;15264581;19;20015;-58
2022/11/12 11:23:10;;;;;;;1.38;1.10;;;;;;;12.01;100.00;99922.34;15268226;19;20018;-55
2022/11/12 11:29:02;;;;;;;1.45;1.23;;;;;;;12.21;100.00;99910.81;15263454;19;20010;-53
2022/11/12 11:35:01;;;;;;;1.10;1.00;;;;;;;12.38;100.00;99912.84;15261365;19;20094;-55
2022/11/12 11:40:56;;;;;;;1.33;0.93;;;;;;;12.53;100.00;99918.72;15262935;19;20006;-57
2022/11/12 11:46:53;;;;;;;1.30;0.90;;;;;;;12.67;100.00;99912.09;15254992;19;20422;-55
2022/11/12 11:52:47;;;;;;;1.45;1.05;;;;;;;12.78;100.00;99913.81;15265847;19;20022;-56
2022/11/12 11:58:53;;;;;;;1.27;0.90;;;;;;;12.97;100.00;99906.75;15274249;19;20458;-57
2022/11/12 12:04:54;;;;;;;0.80;0.80;;;;;;;13.11;100.00;99903.66;15276803;19;20727;-51
2022/11/12 12:11:00;;;;;;;1.17;1.00;;;;;;;13.19;100.00;99895.66;15278803;19;20019;-54
2022/11/12 12:17:00;;;;;;;1.33;0.85;;;;;;;13.29;100.00;99887.53;15281719;19;20022;-53
2022/11/12 12:22:48;;;;;;;1.58;1.10;;;;;;;13.35;100.00;99883.38;15282831;19;20014;-56
2022/11/12 12:28:42;;;;;;;1.52;1.27;;;;;;;13.34;100.00;99884.41;15278659;19;20011;-55
2022/11/12 12:34:33;;;;;;;2.75;1.40;;;;;;;13.33;100.00;99877.28;15276865;19;20074;-56
2022/11/12 12:40:25;;;;;;;2.08;1.40;;;;;;;13.32;100.00;99879.13;15274465;19;20022;-57
2022/11/12 12:46:12;;;;;;;2.40;1.80;;;;;;;13.30;100.00;99880.28;15273636;19;21229;-56
2022/11/12 12:51:58;;;;;;;2.08;1.65;;;;;;;13.28;100.00;99882.25;15274418;19;20039;-58
2022/11/12 12:57:42;;;;;;;2.25;1.70;;;;;;;13.32;100.00;99867.47;15276998;19;20018;-55
2022/11/12 13:03:54;;;;;;;2.65;1.90;;;;;;;13.37;100.00;99866.03;15276330;19;20515;-57
2022/11/12 13:09:39;;;;;;;;;;;;;;;13.38;100.00;99856.91;15274506;19;20388;-57
2022/11/12 13:15:23;;;;;;;2.42;1.50;;;;;;;13.46;100.00;99847.25;15276042;19;19927;-57
2022/11/12 13:21:12;;;;;;;1.95;1.45;;;;;;;13.56;100.00;99840.81;15272965;19;20036;-58
2022/11/12 13:27:04;;;;;;;1.77;1.45;;;;;;;13.68;100.00;99837.94;15269986;19;20006;-54
2022/11/12 13:32:56;;;;;;;2.23;1.70;;;;;;;13.78;100.00;99843.31;15275807;19;20027;-56
2022/11/12 13:38:46;;;;;;;1.85;1.60;;;;;;;13.82;100.00;99840.16;15275006;19;20015;-55
2022/11/12 13:44:39;;;;;;;2.03;1.83;;;;;;;13.84;100.00;99845.44;15273776;19;20381;-56
2022/11/12 13:50:30;;;;;;;1.70;1.50;;;;;;;13.79;100.00;99842.31;15273276;19;20014;-56
2022/11/12 13:56:28;;;;;;;2.03;1.55;;;;;;;13.65;100.00;99836.34;15271124;19;20022;-56
2022/11/12 14:02:28;;;;;;;2.47;1.70;;;;;;;13.58;100.00;99845.25;15275551;19;20022;-55
2022/11/12 14:08:40;;;;;;;3.13;1.38;;;;;;;13.39;100.00;99838.81;15273220;19;20348;-50
2022/11/12 14:14:34;;;;;;;2.15;1.60;;;;;;;13.38;100.00;99843.38;15272436;19;20391;-55
2022/11/12 14:20:29;;;;;;;2.72;1.50;;;;;;;13.32;100.00;99852.06;15266961;19;20090;-55
2022/11/12 14:26:12;;;;;;;1.75;1.40;;;;;;;13.29;100.00;99846.94;15268891;19;20015;-57
2022/11/12 14:32:03;;;;;;;2.67;1.50;;;;;;;13.17;100.00;99842.69;15272572;19;20010;-56
2022/11/12 14:37:57;;;;;;;3.63;2.47;;;;;;;13.06;100.00;99830.16;15271125;19;20468;-55
2022/11/12 14:43:45;;;;;;;1.85;1.73;;;;;;;12.92;100.00;99826.03;15273560;19;20353;-55
2022/11/12 14:49:42;;;;;;;1.92;1.40;;;;;;;12.76;100.00;99818.44;15267602;19;20082;-53
2022/11/12 14:55:32;;;;;;;2.28;1.52;;;;;;;12.56;100.00;99818.44;15271281;19;20010;-57
2022/11/12 15:01:24;;;;;;;2.10;1.70;;;;;;;12.32;100.00;99821.53;15266998;19;20014;-57
2022/11/12 15:07:32;;;;;;;4.28;1.67;;;;;;;12.14;100.00;99818.63;15263054;19;20014;-54
2022/11/12 15:13:21;;;;;;;2.97;2.15;;;;;;;11.95;100.00;99833.72;15272443;19;20370;-56
2022/11/12 15:19:28;;;;;;;3.22;2.35;;;;;;;11.78;100.00;99821.69;15268413;19;20018;-57
2022/11/12 15:25:13;;;;;;;3.47;2.60;;;;;;;11.57;100.00;99827.16;15263019;19;20018;-55
2022/11/12 15:31:15;;;;;;;5.55;3.67;;;;;;;11.36;100.00;99824.44;15268533;19;20019;-52
2022/11/12 15:36:59;;;;;;;;;;;;;;;11.19;100.00;99821.34;15283805;19;20086;-52
2022/11/12 15:42:46;;;;;;;6.13;3.50;;;;;;;11.04;100.00;99819.97;15286979;19;19918;-49
2022/11/12 15:48:32;;;;;;;4.28;3.35;;;;;;;10.92;100.00;99811.94;15281547;19;20018;-55
2022/11/12 15:54:15;;;;;;;5.20;3.25;;;;;;;10.79;100.00;99814.78;15281515;19;20057;-57
2022/11/12 16:00:03;;;;;;;5.38;3.35;;;;;;;10.65;100.00;99809.69;15273876;19;20811;-50
2022/11/12 16:05:50;;;;;;;2.53;2.08;;;;;;;10.34;100.00;99806.78;15258109;19;20540;-56
2022/11/12 16:11:39;;;;;;;3.80;1.90;;;;;;;10.22;100.00;99818.56;15280935;19;20018;-56
2022/11/12 16:17:24;;;;;;;2.13;1.63;;;;;;;10.08;100.00;99809.75;15283425;19;20014;-53
2022/11/12 16:23:10;;;;;;;10.50;7.40;;;;;;;9.95;100.00;99803.66;15279304;19;20011;-54
2022/11/12 16:28:54;;;;;;;11.50;8.50;;;;;;;9.88;100.00;99797.91;15281814;19;20011;-51
2022/11/12 16:34:38;;;;;;;2.90;2.03;;;;;;;9.81;100.00;99811.03;15281582;19;20014;-58
2022/11/12 16:40:26;;;;;;;1.95;1.65;;;;;;;9.73;100.00;99809.91;15273434;19;20011;-54
2022/11/12 16:46:16;;;;;;;2.65;2.10;;;;;;;9.61;100.00;99819.78;15271453;19;20011;-50
2022/11/12 16:52:00;;;;;;;9.65;4.88;;;;;;;9.47;100.00;99821.72;15274917;19;20018;-51
2022/11/12 16:57:46;;;;;;;6.13;4.45;;;;;;;9.38;100.00;99819.75;15276696;19;20376;-54
2022/11/12 17:03:35;;;;;;;11.40;7.20;;;;;;;9.29;100.00;99807.03;15272284;19;20018;-53
2022/11/12 17:09:19;;;;;;;4.63;3.08;;;;;;;9.17;100.00;99801.63;15269838;19;20574;-53
2022/11/12 17:15:05;;;;;;;2.60;2.05;;;;;;;9.01;100.00;99790.31;15277530;19;20814;-54
2022/11/12 17:20:48;;;;;;;4.40;2.60;;;;;;;8.84;100.00;99788.94;15278207;19;20303;-55
2022/11/12 17:26:32;;;;;;;4.30;2.47;;;;;;;8.73;100.00;99787.91;15275149;19;20030;-52
2022/11/12 17:32:18;;;;;;;3.75;2.83;;;;;;;8.61;100.00;99781.66;15292232;19;20014;-53
2022/11/12 17:38:01;;;;;;;5.55;5.00;;;;;;;8.53;100.00;99784.03;15276704;19;20015;-54
2022/11/12 17:43:46;;;;;;;2.95;2.20;;;;;;;8.51;100.00;99782.44;15266830;19;20019;-53
2022/11/12 17:49:33;;;;;;;3.42;2.20;;;;;;;8.46;100.00;99790.81;15274566;19;20049;-53
2022/11/12 17:55:17;;;;;;;2.40;2.00;;;;;;;8.45;100.00;99789.09;15270644;19;20011;-53
2022/11/12 18:01:14;;;;;;;2.40;1.90;;;;;;;8.30;100.00;99783.03;15271267;19;20022;-55
2022/11/12 18:07:00;;;;;;;2.20;2.00;;;;;;;8.14;100.00;99783.31;15247669;19;20018;-56
2022/11/12 18:12:44;;;;;;;2.90;2.42;;;;;;;8.05;100.00;99786.66;15268272;19;20731;-53
2022/11/12 18:18:29;;;;;;;3.15;2.80;;;;;;;8.02;100.00;99793.09;15275352;19;20683;-54
2022/11/12 18:24:19;;;;;;;5.28;2.90;;;;;;;7.97;100.00;99789.91;15267498;19;20010;-56
2022/11/12 18:30:02;;;;;;;4.35;2.33;;;;;;;7.90;100.00;99778.75;15275352;19;20046;-54
2022/11/12 18:35:45;;;;;;;2.50;2.30;;;;;;;7.80;100.00;99783.06;15277416;19;20011;-55
2022/11/12 18:41:32;;;;;;;3.63;2.40;;;;;;;7.72;100.00;99773.72;15276732;19;20018;-54
2022/11/12 18:47:16;;;;;;;3.60;2.45;;;;;;;7.64;100.00;99786.84;15265181;19;20079;-56
2022/11/12 18:52:59;;;;;;;4.43;4.03;;;;;;;7.59;100.00;99780.91;15272249;19;20018;-52
2022/11/12 18:58:45;;;;;;;3.60;3.00;;;;;;;7.56;100.00;99786.53;15272234;19;20624;-55
2022/11/12 19:04:34;;;;;;;4.13;2.78;;;;;;;7.48;100.00;99773.66;15267852;19;20010;-55
2022/11/12 19:10:21;;;;;;;3.00;2.70;;;;;;;7.43;100.00;99778.47;15272335;19;20018;-53
2022/11/12 19:16:12;;;;;;;2.47;2.28;;;;;;;7.39;100.00;99785.88;15270179;19;20089;-55
2022/11/12 19:21:55;;;;;;;3.15;2.45;;;;;;;7.30;100.00;99773.13;15263096;19;20030;-51
2022/11/12 19:27:38;;;;;;;3.75;2.80;;;;;;;7.20;100.00;99780.09;15267570;19;20014;-55
2022/11/12 19:33:24;;;;;;;3.97;2.70;;;;;;;7.11;100.00;99780.72;15266698;19;20038;-52
2022/11/12 19:39:09;;;;;;;2.92;2.53;;;;;;;7.01;100.00;99792.06;15268082;19;20022;-55
2022/11/12 19:44:52;;;;;;;3.80;2.40;;;;;;;6.90;100.00;99783.88;15267670;19;20419;-51
2022/11/12 19:50:38;;;;;;;2.60;2.40;;;;;;;6.76;100.00;99776.78;15263495;19;20018;-52
2022/11/12 19:56:23;;;;;;;3.22;2.22;;;;;;;6.63;100.00;99787.47;15269548;19;20018;-51
2022/11/12 20:02:05;;;;;;;3.00;2.30;;;;;;;6.51;100.00;99789.16;15263967;19;20015;-52
2022/11/12 20:07:52;;;;;;;4.22;2.70;;;;;;;6.46;100.00;99796.63;15261704;19;20014;-51
2022/11/12 20:13:36;;;;;;;2.92;2.63;;;;;;;6.38;100.00;99789.09;15263375;19;20014;-55
2022/11/12 20:19:19;;;;;;;4.25;2.92;;;;;;;6.29;100.00;99795.91;15278498;19;20387;-54
2022/11/12 20:25:06;;;;;;;3.05;2.75;;;;;;;6.16;100.00;99785.16;15276296;19;20010;-54
2022/11/12 20:30:50;;;;;;;4.05;3.20;;;;;;;6.07;100.00;99796.44;15277819;19;20014;-54
2022/11/12 20:36:34;;;;;;;3.03;2.47;;;;;;;5.98;100.00;99784.50;15280254;19;20003;-55
2022/11/12 20:42:20;;;;;;;3.92;2.70;;;;;;;5.84;100.00;99784.50;15278499;19;20102;-52
2022/11/12 20:48:04;;;;;;;3.92;2.92;;;;;;;5.74;100.00;99794.91;15275245;19;20010;-52
2022/11/12 20:53:46;;;;;;;4.72;3.60;;;;;;;5.69;100.00;99786.34;15275353;19;20381;-55
2022/11/12 20:59:40;;;;;;;3.90;3.50;;;;;;;5.62;100.00;99785.00;15279592;19;20014;-55
2022/11/12 21:05:33;;;;;;;3.70;3.30;;;;;;;5.50;100.00;99778.59;15278595;19;20015;-52
2022/11/12 21:11:18;;;;;;;4.75;3.25;;;;;;;5.41;100.00;99769.34;15278288;19;20415;-51
2022/11/12 21:17:04;;;;;;;3.90;3.47;;;;;;;5.31;100.00;99760.19;15275938;19;20468;-55
2022/11/12 21:22:46;;;;;;;4.05;3.50;;;;;;;5.22;100.00;99775.81;15276185;19;20022;-55
2022/11/12 21:28:30;;;;;;;4.22;3.80;;;;;;;5.17;100.00;99769.03;15271799;19;20070;-55
2022/11/12 21:34:15;;;;;;;4.18;3.78;;;;;;;5.15;100.00;99773.63;15274869;19;20011;-53
2022/11/12 21:39:59;;;;;;;4.50;3.80;;;;;;;5.10;100.00;99763.22;15276118;19;20439;-59
2022/11/12 21:45:47;;;;;;;4.25;3.72;;;;;;;5.04;100.00;99763.56;15277687;19;20026;-56
2022/11/12 21:51:36;;;;;;;3.92;3.17;;;;;;;5.00;100.00;99764.72;15278249;19;20014;-51
2022/11/12 21:57:18;;;;;;;4.20;3.80;;;;;;;4.93;100.00;99756.22;15277219;19;20066;-55
2022/11/12 22:03:05;;;;;;;6.35;3.83;;;;;;;4.90;100.00;99770.59;15273749;19;20006;-53
2022/11/12 22:08:59;;;;;;;5.43;4.13;;;;;;;4.88;100.00;99763.63;15275326;19;20020;-54
2022/11/12 22:14:48;;;;;;;4.90;4.10;;;;;;;4.86;100.00;99770.88;15273450;19;20010;-58
2022/11/12 22:20:33;;;;;;;5.88;4.15;;;;;;;4.82;100.00;99759.53;15277411;19;20148;-51
2022/11/12 22:26:28;;;;;;;6.18;3.92;;;;;;;4.78;100.00;99748.16;15278300;19;20843;-54
2022/11/12 22:32:21;;;;;;;5.15;4.60;;;;;;;4.75;100.00;99740.34;15274031;19;20014;-56
2022/11/12 22:38:21;;;;;;;5.38;4.72;;;;;;;4.73;100.00;99730.72;15274428;19;20018;-53
2022/11/12 22:44:31;;;;;;;5.65;4.90;;;;;;;4.74;100.00;99729.75;15274499;19;20459;-55
2022/11/12 22:50:19;;;;;;;5.03;4.43;;;;;;;4.70;100.00;99725.53;15272733;19;20034;-56
2022/11/12 22:56:12;;;;;;;5.63;4.60;;;;;;;4.63;100.00;99717.91;15276284;19;20019;-53
2022/11/12 23:02:23;;;;;;;5.35;4.55;;;;;;;4.62;100.00;99729.53;15272458;19;20018;-53
2022/11/12 23:08:11;;;;;;;4.55;4.05;;;;;;;4.58;100.00;99725.31;15270289;19;20365;-52
2022/11/12 23:14:05;;;;;;;4.13;3.70;;;;;;;4.54;100.00;99714.91;15272462;19;20546;-56
2022/11/12 23:20:02;;;;;;;5.18;4.40;;;;;;;4.48;100.00;99711.66;15276011;19;20475;-57
2022/11/12 23:25:53;;;;;;;4.75;3.67;;;;;;;4.43;100.00;99704.88;15271340;19;20093;-57
2022/11/12 23:31:39;;;;;;;6.70;4.28;;;;;;;4.39;100.00;99706.03;15267514;19;20015;-58
2022/11/12 23:37:26;;;;;;;5.22;4.72;;;;;;;4.39;100.00;99704.19;15266418;19;20010;-55
2022/11/12 23:43:22;;;;;;;5.20;4.70;;;;;;;4.37;100.00;99705.25;15266906;19;20018;-53
2022/11/12 23:49:07;;;;;;;5.15;4.65;;;;;;;4.37;100.00;99695.41;15264914;19;20010;-56
2022/11/12 23:55:00;;;;;;;6.10;4.60;;;;;;;4.35;100.00;99701.81;15279778;19;20014;-54
